Terminal Aerodrome Forecast
Issued by NWS Louisville, KY

Home | Current Version | Previous Version | Text Only | Print | Product List | Glossary On
Versions: 1 2 3 4 5 6 7 8 9 10 11 12 13 14 15 16 17 18 19
031
FTUS43 KLMK 251120
TAFBWG
TAF
KBWG 251120Z 2512/2612 18012KT P6SM BKN180 WS020/18050KT
     FM251300 18016G29KT P6SM SCT040 BKN150
     FM252100 16014G22KT P6SM -SHRA VCTS BKN045CB
     FM260400 17008KT 4SM -SHRA BKN025=

USA.gov is the U.S. government's official web portal to all federal, state and local government web resources and services.